Portada
METAR-TAF:

METAR-TAF

Aeropuertos :

Dayton, Ohio, Estados Unidos

latitud: 39-35-20N, longitud: 084-13-29W, altitud: 292 m

Observación

El informe se hizo hace 25 minutos, a las 20:53 UTC
Viento 6 kt del sur-sureste
Temperatura 33°C
Humedad 46%
Presión 1024 hPa
Visibilidad: 16.1 km
Cielo despejado

METAR: KMGY 192053Z AUTO 15006KT 10SM CLR 33/20 A3024 RMK AO2 SLP230 T03280200 56007

Hora: 17:18 (21:18 UTC)


TAF: falta

Observaciones y pronósticos meteorológicos de más de 4000 aeropuertos (mensajes METAR y TAF).

Los puntos amarillos y rojos representan las estaciones disponibles.

Ponga el ratón en el punto deseado para ver el nombre de la estación.

Haga clic para ver las observaciones y los pronósticos meteorológicos.

Para cambiar el mapa : haga clic en los botones verdes con una cruz de color negro para hacer un zoom, en el botón verde con un guión para alejar o en las flechas verdes para mapas adyacentes.


METAR-TAF: